createdAt,value
2019-03-27T00:00:13.410Z,14.37
2019-03-27T00:02:41.815Z,11.13
2019-03-27T00:05:10.402Z,12.60
2019-03-27T00:07:38.827Z,12.50
2019-03-27T00:10:09.030Z,12.15
2019-03-27T00:12:37.989Z,15.60
2019-03-27T00:15:13.195Z,15.60
2019-03-27T00:17:40.993Z,8.63
2019-03-27T00:20:10.432Z,11.10
2019-03-27T00:22:38.884Z,13.50
2019-03-27T00:25:08.942Z,14.40
2019-03-27T00:27:37.354Z,12.40
2019-03-27T00:30:08.018Z,10.77
2019-03-27T00:32:36.424Z,14.50
2019-03-27T00:35:09.710Z,11.10
2019-03-27T00:37:38.113Z,12.80
2019-03-27T00:40:07.362Z,14.07
2019-03-27T00:42:35.802Z,13.70
2019-03-27T00:45:06.842Z,12.40
2019-03-27T00:47:35.278Z,14.77
2019-03-27T00:50:05.422Z,14.13
2019-03-27T00:52:33.817Z,12.57
2019-03-27T00:55:02.237Z,12.43
2019-03-27T00:57:30.661Z,15.40
2019-03-27T00:59:59.058Z,13.43
2019-03-27T01:02:27.469Z,12.27
2019-03-27T01:04:55.891Z,14.90
2019-03-27T01:07:24.466Z,15.67
2019-03-27T01:09:52.876Z,11.50
2019-03-27T01:12:21.293Z,15.63
2019-03-27T01:14:49.703Z,15.47
2019-03-27T01:17:18.101Z,12.60
2019-03-27T01:19:46.604Z,12.97
2019-03-27T01:22:15.010Z,13.40
2019-03-27T01:24:43.434Z,13.27
2019-03-27T01:27:11.830Z,14.47
2019-03-27T01:29:40.237Z,16.53
2019-03-27T01:32:08.874Z,18.03
2019-03-27T01:34:37.286Z,16.53
2019-03-27T01:37:05.682Z,14.47
2019-03-27T01:39:34.130Z,15.90
2019-03-27T01:42:02.528Z,16.40
2019-03-27T01:44:30.962Z,16.57
2019-03-27T01:46:59.429Z,13.97
2019-03-27T01:49:27.850Z,13.27
2019-03-27T01:51:56.309Z,15.93
2019-03-27T01:54:24.774Z,14.90
2019-03-27T01:56:53.170Z,15.23
2019-03-27T01:59:21.623Z,13.87
2019-03-27T02:01:50.229Z,15.87
2019-03-27T02:04:18.674Z,20.07
2019-03-27T02:06:47.075Z,21.70
2019-03-27T02:09:15.469Z,12.80
2019-03-27T02:11:43.902Z,13.90
2019-03-27T02:14:12.289Z,16.30
2019-03-27T02:16:40.704Z,13.10
2019-03-27T02:19:09.127Z,13.50
2019-03-27T02:21:37.540Z,10.97
2019-03-27T02:24:05.943Z,18.90
2019-03-27T02:26:34.367Z,14.87
2019-03-27T02:29:02.807Z,14.87
2019-03-27T02:31:31.203Z,17.53
2019-03-27T02:33:59.593Z,16.70
2019-03-27T02:36:28.299Z,17.03
2019-03-27T02:38:56.685Z,15.17
2019-03-27T02:41:25.086Z,16.03
2019-03-27T02:43:54.059Z,18.87
2019-03-27T02:46:25.259Z,19.20
2019-03-27T02:48:52.562Z,15.03
2019-03-27T02:51:20.995Z,16.53
2019-03-27T02:53:49.378Z,14.23
2019-03-27T02:56:17.774Z,13.13
2019-03-27T02:58:46.189Z,16.80
2019-03-27T03:01:14.640Z,20.30
2019-03-27T03:03:43.043Z,16.70
2019-03-27T03:06:11.444Z,18.33
2019-03-27T03:08:39.872Z,16.43
2019-03-27T03:11:08.268Z,18.17
2019-03-27T03:13:36.678Z,14.90
2019-03-27T03:16:05.254Z,16.93
2019-03-27T03:18:33.674Z,15.33
2019-03-27T03:21:02.072Z,18.37
2019-03-27T03:23:30.489Z,19.10
2019-03-27T03:25:58.890Z,19.83
2019-03-27T03:28:27.298Z,18.47
2019-03-27T03:30:55.729Z,17.53
2019-03-27T03:33:24.293Z,17.30
2019-03-27T03:35:52.732Z,20.03
2019-03-27T03:38:21.164Z,17.97
2019-03-27T03:40:49.591Z,16.97
2019-03-27T03:43:18.014Z,18.40
2019-03-27T03:45:46.417Z,16.20
2019-03-27T03:48:14.829Z,17.23
2019-03-27T03:50:43.770Z,15.83
2019-03-27T03:53:13.827Z,16.93
2019-03-27T03:55:43.080Z,18.23
2019-03-27T03:58:13.713Z,19.33
2019-03-27T04:00:42.507Z,16.93
2019-03-27T04:03:12.418Z,21.17
2019-03-27T04:05:40.830Z,19.93
2019-03-27T04:08:09.225Z,19.87
2019-03-27T04:10:37.655Z,20.40
2019-03-27T04:13:06.117Z,21.60
2019-03-27T04:15:34.686Z,18.77
2019-03-27T04:18:03.204Z,18.57
2019-03-27T04:20:31.605Z,17.33
2019-03-27T04:23:00.122Z,19.17
2019-03-27T04:25:28.510Z,18.80
2019-03-27T04:27:56.908Z,18.83
2019-03-27T04:30:25.325Z,19.60
2019-03-27T04:32:53.723Z,21.13
2019-03-27T04:35:22.116Z,24.50
2019-03-27T04:37:50.549Z,18.77
2019-03-27T04:40:18.944Z,19.30
2019-03-27T04:42:47.337Z,17.40
2019-03-27T04:45:17.350Z,17.70
2019-03-27T04:47:45.753Z,21.27
2019-03-27T04:50:14.149Z,18.55
2019-03-27T04:52:42.584Z,18.77
2019-03-27T04:55:11.144Z,18.20
2019-03-27T04:57:39.543Z,22.50
2019-03-27T05:00:08.512Z,19.97
2019-03-27T05:02:36.931Z,19.40
2019-03-27T05:05:07.242Z,22.17
2019-03-27T05:07:35.637Z,18.83
2019-03-27T05:10:05.316Z,18.50
2019-03-27T05:12:33.717Z,19.63
2019-03-27T05:15:02.154Z,18.43
2019-03-27T05:17:30.577Z,21.13
2019-03-27T05:19:58.986Z,21.97
2019-03-27T05:22:27.392Z,22.13
2019-03-27T05:24:55.975Z,21.17
2019-03-27T05:27:24.365Z,19.30
2019-03-27T05:29:52.761Z,18.87
2019-03-27T05:32:21.185Z,18.93
2019-03-27T05:34:49.580Z,21.67
2019-03-27T05:37:17.976Z,21.40
2019-03-27T05:39:46.401Z,22.10
2019-03-27T05:42:14.834Z,23.70
2019-03-27T05:44:43.232Z,20.30
2019-03-27T05:47:11.657Z,21.37
2019-03-27T05:49:40.059Z,20.33
2019-03-27T05:52:08.447Z,23.10
2019-03-27T05:54:36.868Z,22.23
2019-03-27T05:57:05.299Z,20.67
2019-03-27T05:59:33.696Z,21.27
2019-03-27T06:02:02.432Z,24.23
2019-03-27T06:04:30.819Z,19.87
2019-03-27T06:06:59.226Z,21.17
2019-03-27T06:09:27.646Z,20.83
2019-03-27T06:11:56.091Z,20.97
2019-03-27T06:14:24.494Z,22.57
2019-03-27T06:16:52.928Z,23.70
2019-03-27T06:19:21.326Z,21.80
2019-03-27T06:21:49.729Z,19.43
2019-03-27T06:24:18.211Z,24.43
2019-03-27T06:26:46.643Z,21.23
2019-03-27T06:29:15.933Z,19.67
2019-03-27T06:31:44.520Z,21.23
2019-03-27T06:34:12.951Z,23.20
2019-03-27T06:36:41.349Z,23.07
2019-03-27T06:39:09.805Z,19.30
2019-03-27T06:41:38.236Z,18.83
2019-03-27T06:44:07.554Z,23.17
2019-03-27T06:46:35.952Z,21.70
2019-03-27T06:49:04.409Z,28.90
2019-03-27T06:54:01.700Z,26.83
2019-03-27T06:56:30.120Z,26.37
2019-03-27T06:58:58.516Z,20.90
2019-03-27T07:01:26.918Z,22.63
2019-03-27T07:03:55.352Z,22.47
2019-03-27T07:06:23.752Z,18.03
2019-03-27T07:08:52.314Z,21.87
2019-03-27T07:11:20.740Z,23.57
2019-03-27T07:13:49.144Z,21.73
2019-03-27T07:16:17.546Z,22.95
2019-03-27T07:18:45.979Z,21.33
2019-03-27T07:21:14.373Z,21.43
2019-03-27T07:23:42.761Z,21.90
2019-03-27T07:26:11.213Z,24.03
2019-03-27T07:28:39.580Z,23.13
2019-03-27T07:31:07.997Z,21.03
2019-03-27T07:33:36.389Z,28.17
2019-03-27T07:36:04.810Z,25.13
2019-03-27T07:38:33.212Z,24.07
2019-03-27T07:41:01.609Z,23.47
2019-03-27T07:43:30.053Z,27.00
2019-03-27T07:45:58.441Z,24.00
2019-03-27T07:48:26.840Z,24.53
2019-03-27T07:50:55.349Z,24.73
2019-03-27T07:53:23.749Z,28.07
2019-03-27T07:55:52.140Z,22.27
2019-03-27T07:58:20.563Z,22.93
2019-03-27T08:00:48.972Z,24.93
2019-03-27T08:03:17.557Z,23.57
2019-03-27T08:05:45.948Z,23.93
2019-03-27T08:08:14.345Z,24.73
2019-03-27T08:10:42.832Z,24.20
2019-03-27T08:13:11.208Z,19.83
2019-03-27T08:15:40.921Z,24.13
2019-03-27T08:18:09.510Z,25.37
2019-03-27T08:20:37.906Z,27.23
2019-03-27T08:23:06.373Z,28.87
2019-03-27T08:25:34.768Z,25.07
2019-03-27T08:28:03.172Z,24.40
2019-03-27T08:30:31.597Z,25.17
2019-03-27T08:32:59.990Z,24.80
2019-03-27T08:35:28.472Z,26.67
2019-03-27T08:37:56.892Z,31.50
2019-03-27T08:40:25.332Z,25.73
2019-03-27T08:42:53.739Z,32.10
2019-03-27T08:45:22.244Z,28.87
2019-03-27T08:47:50.669Z,28.13
2019-03-27T08:50:19.616Z,30.75
2019-03-27T08:52:48.049Z,32.00
2019-03-27T08:55:16.741Z,34.90
2019-03-27T08:57:45.560Z,35.40
2019-03-27T09:00:14.892Z,33.93
2019-03-27T09:02:43.305Z,37.03
2019-03-27T09:05:11.865Z,37.90
2019-03-27T09:07:40.310Z,39.97
2019-03-27T09:10:08.944Z,39.93
2019-03-27T09:12:37.396Z,38.47
2019-03-27T09:15:08.447Z,38.17
2019-03-27T09:17:36.863Z,42.37
2019-03-27T09:20:07.114Z,40.60
2019-03-27T09:22:35.536Z,38.07
2019-03-27T09:25:08.096Z,36.13
2019-03-27T09:27:36.494Z,43.20
2019-03-27T09:30:08.018Z,49.17
2019-03-27T09:32:36.440Z,42.20
2019-03-27T09:35:05.775Z,42.80
2019-03-27T09:37:34.198Z,37.97
2019-03-27T09:40:02.917Z,43.57
2019-03-27T09:42:31.322Z,46.33
2019-03-27T09:44:59.728Z,41.53
2019-03-27T09:47:28.156Z,52.10
2019-03-27T09:49:56.560Z,47.73
2019-03-27T09:52:24.966Z,49.17
2019-03-27T09:54:53.460Z,53.57
2019-03-27T09:57:21.903Z,47.40
2019-03-27T09:59:50.307Z,46.47
2019-03-27T10:02:18.704Z,47.13
2019-03-27T10:04:47.129Z,47.90
2019-03-27T10:07:15.528Z,53.10
2019-03-27T10:09:43.934Z,52.93
2019-03-27T10:12:12.363Z,51.93
2019-03-27T10:14:40.761Z,51.30
2019-03-27T10:17:09.188Z,57.60
2019-03-27T10:19:37.658Z,48.47
2019-03-27T10:22:06.156Z,51.93
2019-03-27T10:24:34.565Z,47.03
2019-03-27T10:27:02.997Z,52.60
2019-03-27T10:29:31.400Z,49.13
2019-03-27T10:32:00.012Z,44.77
2019-03-27T10:34:28.424Z,48.77
2019-03-27T10:36:56.826Z,45.23
2019-03-27T10:39:25.269Z,48.70
2019-03-27T10:41:53.677Z,45.47
2019-03-27T10:44:22.070Z,46.90
2019-03-27T10:46:50.496Z,41.23
2019-03-27T10:49:18.893Z,40.00
2019-03-27T10:51:47.306Z,42.73
2019-03-27T10:54:15.982Z,46.93
2019-03-27T10:56:44.378Z,39.13
2019-03-27T10:59:12.789Z,42.93
2019-03-27T11:01:41.216Z,45.03
2019-03-27T11:04:09.616Z,40.77
2019-03-27T11:06:38.012Z,42.97
2019-03-27T11:09:09.192Z,40.97
2019-03-27T11:11:37.594Z,42.57
2019-03-27T11:14:06.087Z,40.90
2019-03-27T11:16:34.512Z,40.37
2019-03-27T11:19:02.913Z,36.73
2019-03-27T11:21:31.440Z,40.40
2019-03-27T11:23:59.870Z,35.30
2019-03-27T11:26:28.261Z,34.47
2019-03-27T11:28:56.664Z,39.67
2019-03-27T11:31:25.092Z,31.20
2019-03-27T11:33:53.541Z,32.07
2019-03-27T11:36:21.972Z,37.10
2019-03-27T11:38:50.380Z,36.23
2019-03-27T11:41:18.788Z,37.10
2019-03-27T11:43:54.614Z,37.77
2019-03-27T11:46:18.302Z,35.20
2019-03-27T11:48:46.724Z,35.07
2019-03-27T11:51:15.157Z,34.30
2019-03-27T11:53:43.645Z,35.00
2019-03-27T11:56:12.880Z,30.97
2019-03-27T11:58:41.288Z,27.87
2019-03-27T12:01:09.735Z,28.20
2019-03-27T12:03:38.137Z,32.50
2019-03-27T12:06:06.557Z,34.47
2019-03-27T12:08:34.992Z,30.33
2019-03-27T12:11:03.394Z,26.33
2019-03-27T12:13:31.796Z,29.80
2019-03-27T12:16:00.228Z,29.10
2019-03-27T12:18:31.719Z,31.00
2019-03-27T12:20:59.786Z,29.67
2019-03-27T12:23:28.366Z,30.37
2019-03-27T12:25:56.761Z,31.20
2019-03-27T12:28:25.182Z,39.13
2019-03-27T12:30:53.685Z,37.13
2019-03-27T12:33:22.088Z,38.27
2019-03-27T12:35:50.499Z,40.30
2019-03-27T12:38:18.928Z,35.23
2019-03-27T12:40:47.334Z,41.77
2019-03-27T12:43:15.918Z,43.40
2019-03-27T12:45:44.364Z,35.73
2019-03-27T12:48:12.760Z,34.37
2019-03-27T12:50:44.206Z,38.53
2019-03-27T12:53:12.067Z,34.10
2019-03-27T12:55:40.456Z,36.37
2019-03-27T12:58:11.636Z,36.07
2019-03-27T13:00:39.392Z,28.30
2019-03-27T13:03:08.137Z,29.03
2019-03-27T13:05:36.681Z,31.37
2019-03-27T13:08:05.110Z,33.83
2019-03-27T13:10:33.516Z,31.93
2019-03-27T13:13:01.988Z,36.63
2019-03-27T13:15:30.417Z,36.17
2019-03-27T13:17:58.824Z,38.03
2019-03-27T13:20:27.230Z,36.67
2019-03-27T13:22:55.665Z,30.83
2019-03-27T13:25:24.079Z,27.27
2019-03-27T13:27:52.481Z,27.63
2019-03-27T13:30:21.256Z,31.03
2019-03-27T13:32:49.665Z,30.33
2019-03-27T13:35:18.063Z,30.77
2019-03-27T13:37:46.500Z,27.27
2019-03-27T13:40:15.240Z,27.30
2019-03-27T13:42:43.641Z,28.27
2019-03-27T13:45:12.506Z,22.60
2019-03-27T13:47:40.908Z,27.10
2019-03-27T13:50:13.194Z,26.80
2019-03-27T13:52:42.321Z,29.23
2019-03-27T13:55:10.968Z,26.70
2019-03-27T13:57:39.365Z,27.57
2019-03-27T14:00:10.716Z,26.33
2019-03-27T14:02:39.164Z,28.27
2019-03-27T14:05:07.994Z,28.47
2019-03-27T14:07:36.641Z,26.10
2019-03-27T14:10:07.608Z,24.63
2019-03-27T14:12:36.272Z,23.80
2019-03-27T14:15:09.252Z,20.90
2019-03-27T14:17:38.093Z,24.73
2019-03-27T14:20:08.328Z,22.23
2019-03-27T14:22:36.863Z,21.87
2019-03-27T14:25:07.980Z,20.80
2019-03-27T14:27:36.553Z,18.37
2019-03-27T14:30:08.241Z,19.13
2019-03-27T14:32:36.639Z,22.67
2019-03-27T14:35:05.290Z,20.93
2019-03-27T14:37:33.819Z,22.97
2019-03-27T14:40:02.222Z,22.60
2019-03-27T14:42:30.636Z,22.17
2019-03-27T14:44:59.158Z,22.53
2019-03-27T14:47:27.557Z,21.57
2019-03-27T14:49:55.968Z,20.77
2019-03-27T14:52:24.388Z,22.23
2019-03-27T14:54:52.833Z,19.17
2019-03-27T14:57:21.307Z,18.37
2019-03-27T14:59:49.741Z,17.83
2019-03-27T15:02:18.136Z,20.67
2019-03-27T15:04:46.541Z,18.03
2019-03-27T15:07:14.969Z,17.50
2019-03-27T15:09:43.369Z,22.13
2019-03-27T15:12:11.782Z,20.00
2019-03-27T15:14:40.377Z,20.37
2019-03-27T15:17:08.773Z,21.70
2019-03-27T15:19:37.229Z,19.80
2019-03-27T15:22:05.644Z,21.90
2019-03-27T15:24:34.046Z,19.00
2019-03-27T15:27:02.453Z,18.83
2019-03-27T15:29:30.957Z,23.07
2019-03-27T15:31:59.425Z,20.30
2019-03-27T15:34:27.825Z,21.00
2019-03-27T15:36:56.270Z,19.53
2019-03-27T15:39:24.674Z,21.00
2019-03-27T15:41:53.070Z,17.87
2019-03-27T15:44:21.501Z,19.73
2019-03-27T15:46:49.924Z,23.37
2019-03-27T15:49:18.322Z,19.00
2019-03-27T15:51:46.787Z,17.27
2019-03-27T15:54:15.360Z,20.27
2019-03-27T15:56:43.756Z,17.20
2019-03-27T15:59:12.333Z,20.53
2019-03-27T16:01:40.723Z,21.80
2019-03-27T16:04:09.120Z,14.83
2019-03-27T16:06:37.561Z,20.07
2019-03-27T16:09:09.569Z,17.37
2019-03-27T16:11:37.992Z,18.57
2019-03-27T16:14:06.381Z,16.93
2019-03-27T16:16:34.800Z,16.70
2019-03-27T16:19:03.349Z,18.53
2019-03-27T16:21:31.793Z,19.27
2019-03-27T16:24:06.381Z,17.27
2019-03-27T16:26:30.417Z,17.70
2019-03-27T16:28:58.864Z,17.27
2019-03-27T16:31:27.256Z,17.63
2019-03-27T16:33:55.656Z,16.97
2019-03-27T16:36:24.124Z,19.07
2019-03-27T16:38:52.613Z,15.90
2019-03-27T16:41:21.073Z,17.33
2019-03-27T16:43:49.544Z,15.80
2019-03-27T16:46:17.946Z,20.63
2019-03-27T16:48:46.351Z,18.13
2019-03-27T16:51:14.784Z,17.37
2019-03-27T16:53:43.308Z,19.57
2019-03-27T16:56:11.709Z,16.53
2019-03-27T16:58:40.132Z,18.10
2019-03-27T17:01:08.710Z,22.47
2019-03-27T17:03:37.117Z,15.00
2019-03-27T17:06:05.811Z,16.93
2019-03-27T17:08:34.213Z,17.53
2019-03-27T17:11:02.610Z,14.27
2019-03-27T17:13:31.069Z,14.53
2019-03-27T17:15:59.509Z,14.00
2019-03-27T17:18:28.302Z,15.70
2019-03-27T17:20:56.808Z,12.83
2019-03-27T17:23:25.204Z,12.93
2019-03-27T17:25:53.749Z,15.80
2019-03-27T17:28:22.401Z,11.83
2019-03-27T17:30:50.845Z,13.67
2019-03-27T17:33:19.289Z,15.87
2019-03-27T17:35:47.696Z,15.00
2019-03-27T17:38:16.092Z,14.47
2019-03-27T17:40:44.544Z,14.87
2019-03-27T17:43:12.938Z,13.40
2019-03-27T17:45:41.376Z,15.33
2019-03-27T17:48:09.804Z,17.60
2019-03-27T17:50:38.209Z,16.73
2019-03-27T17:53:06.601Z,16.50
2019-03-27T17:55:35.040Z,13.20
2019-03-27T17:58:05.408Z,14.10
2019-03-27T18:00:44.781Z,14.80
2019-03-27T18:03:13.206Z,14.37
2019-03-27T18:05:41.904Z,12.50
2019-03-27T18:08:10.403Z,12.13
2019-03-27T18:10:38.824Z,12.13
2019-03-27T18:13:07.228Z,11.63
2019-03-27T18:15:35.680Z,12.67
2019-03-27T18:18:04.088Z,13.67
2019-03-27T18:20:32.484Z,12.17
2019-03-27T18:23:00.940Z,12.37
2019-03-27T18:25:29.328Z,11.60
2019-03-27T18:27:58.615Z,12.57
2019-03-27T18:30:27.253Z,15.10
2019-03-27T18:32:55.646Z,15.03
2019-03-27T18:35:24.033Z,12.90
2019-03-27T18:37:52.464Z,12.93
2019-03-27T18:40:20.869Z,14.13
2019-03-27T18:42:49.284Z,11.17
2019-03-27T18:45:17.705Z,14.43
2019-03-27T18:47:46.210Z,11.53
2019-03-27T18:50:14.917Z,12.57
2019-03-27T18:52:49.686Z,12.20
2019-03-27T18:55:26.515Z,15.73
2019-03-27T18:57:59.315Z,16.40
2019-03-27T19:00:21.773Z,13.93
2019-03-27T19:02:50.222Z,13.97
2019-03-27T19:05:18.652Z,12.47
2019-03-27T19:07:47.084Z,15.63
2019-03-27T19:10:15.661Z,13.40
2019-03-27T19:12:44.053Z,12.73
2019-03-27T19:15:13.229Z,13.37
2019-03-27T19:17:41.744Z,14.23
2019-03-27T19:20:10.500Z,12.60
2019-03-27T19:22:38.938Z,14.30
2019-03-27T19:25:08.392Z,14.23
2019-03-27T19:27:36.924Z,11.43
2019-03-27T19:30:07.615Z,13.60
2019-03-27T19:32:36.099Z,16.37
2019-03-27T19:35:05.451Z,12.93
2019-03-27T19:37:33.882Z,12.60
2019-03-27T19:40:02.320Z,15.60
2019-03-27T19:42:30.796Z,16.17
2019-03-27T19:44:59.328Z,15.17
2019-03-27T19:47:27.734Z,17.60
2019-03-27T19:49:56.135Z,13.93
2019-03-27T19:52:24.606Z,14.90
2019-03-27T19:54:53.012Z,14.97
2019-03-27T19:57:21.408Z,13.27
2019-03-27T19:59:49.841Z,16.80
2019-03-27T20:02:18.253Z,14.93
2019-03-27T20:04:46.692Z,15.33
2019-03-27T20:07:15.103Z,19.17
2019-03-27T20:09:43.495Z,16.13
2019-03-27T20:12:13.851Z,16.10
2019-03-27T20:14:42.674Z,16.80
2019-03-27T20:17:11.369Z,14.40
2019-03-27T20:19:39.776Z,17.20
2019-03-27T20:22:08.178Z,16.00
2019-03-27T20:24:41.144Z,18.87
2019-03-27T20:27:06.840Z,15.03
2019-03-27T20:29:35.232Z,16.23
2019-03-27T20:32:03.677Z,16.57
2019-03-27T20:34:32.079Z,16.00
2019-03-27T20:37:00.471Z,15.93
2019-03-27T20:39:28.915Z,14.63
2019-03-27T20:41:57.300Z,13.90
2019-03-27T20:44:25.695Z,13.95
2019-03-27T20:46:54.117Z,16.23
2019-03-27T20:49:22.561Z,19.17
2019-03-27T20:51:50.980Z,15.13
2019-03-27T20:54:19.376Z,14.68
2019-03-27T20:56:47.812Z,14.43
2019-03-27T20:59:18.380Z,17.43
2019-03-27T21:01:46.409Z,18.13
2019-03-27T21:04:14.842Z,15.88
2019-03-27T21:06:43.240Z,15.47
2019-03-27T21:09:11.684Z,15.33
2019-03-27T21:11:40.248Z,17.17
2019-03-27T21:14:09.104Z,15.85
2019-03-27T21:16:37.503Z,14.90
2019-03-27T21:19:05.933Z,19.37
2019-03-27T21:21:34.359Z,16.20
2019-03-27T21:24:02.749Z,16.80
2019-03-27T21:26:31.149Z,20.40
2019-03-27T21:28:59.559Z,17.97
2019-03-27T21:31:27.955Z,16.70
2019-03-27T21:33:57.821Z,15.77
2019-03-27T21:36:26.253Z,18.03
2019-03-27T21:38:55.639Z,17.33
2019-03-27T21:41:24.086Z,15.43
2019-03-27T21:43:52.468Z,20.67
2019-03-27T21:46:20.905Z,18.00
2019-03-27T21:48:49.473Z,16.97
2019-03-27T21:51:17.976Z,17.30
2019-03-27T21:53:50.548Z,20.80
2019-03-27T21:56:17.583Z,19.13
2019-03-27T21:58:45.982Z,17.60
2019-03-27T22:01:14.407Z,20.07
2019-03-27T22:03:42.814Z,17.80
2019-03-27T22:06:11.400Z,15.93
2019-03-27T22:08:39.966Z,20.80
2019-03-27T22:11:08.363Z,20.67
2019-03-27T22:13:36.761Z,17.27
2019-03-27T22:16:05.178Z,17.90
2019-03-27T22:18:33.574Z,20.23
2019-03-27T22:21:02.004Z,17.57
2019-03-27T22:23:30.569Z,19.00
2019-03-27T22:26:00.212Z,16.43
2019-03-27T22:28:28.689Z,16.83
2019-03-27T22:30:57.104Z,20.67
2019-03-27T22:33:25.505Z,18.70
2019-03-27T22:35:54.008Z,17.60
2019-03-27T22:38:22.409Z,17.27
2019-03-27T22:40:50.808Z,19.30
2019-03-27T22:43:19.244Z,23.00
2019-03-27T22:45:47.706Z,15.60
2019-03-27T22:48:16.099Z,16.87
2019-03-27T22:50:44.518Z,17.77
2019-03-27T22:53:12.916Z,19.50
2019-03-27T22:55:49.563Z,17.40
2019-03-27T22:58:12.995Z,18.90
2019-03-27T23:00:51.768Z,23.60
2019-03-27T23:03:20.166Z,18.13
2019-03-27T23:05:48.566Z,20.10
2019-03-27T23:08:16.996Z,19.43
2019-03-27T23:10:45.423Z,20.20
2019-03-27T23:13:13.814Z,20.43
2019-03-27T23:15:42.500Z,21.63
2019-03-27T23:18:10.904Z,20.07
2019-03-27T23:20:39.326Z,21.27
2019-03-27T23:23:07.749Z,22.97
2019-03-27T23:25:36.188Z,21.17
2019-03-27T23:28:04.674Z,23.07
2019-03-27T23:30:33.110Z,18.80
2019-03-27T23:33:01.672Z,19.83
2019-03-27T23:35:30.096Z,22.53
2019-03-27T23:37:58.681Z,20.93
2019-03-27T23:40:27.117Z,20.67
2019-03-27T23:42:55.513Z,20.13
2019-03-27T23:45:23.920Z,20.87
2019-03-27T23:47:52.356Z,21.33
2019-03-27T23:50:20.737Z,20.67
2019-03-27T23:52:49.132Z,22.10
2019-03-27T23:55:17.560Z,23.07
2019-03-27T23:57:45.958Z,22.23
